sensor_id;sensor_type;location;lat;lon;timestamp;pressure;altitude;pressure_sealevel;temperature;humidity
81005;BME280;70472;47.592;17.640;2023-07-29T00:00:26;99438.03;;;17.49;88.98
81005;BME280;70472;47.592;17.640;2023-07-29T00:00:58;99443.47;;;17.49;88.84
81005;BME280;70472;47.592;17.640;2023-07-29T00:01:31;99438.63;;;17.51;89.64
81005;BME280;70472;47.592;17.640;2023-07-29T00:02:04;99443.00;;;17.52;88.63
81005;BME280;70472;47.592;17.640;2023-07-29T00:02:36;99443.59;;;17.54;89.50
81005;BME280;70472;47.592;17.640;2023-07-29T00:03:09;99442.09;;;17.58;88.92
81005;BME280;70472;47.592;17.640;2023-07-29T00:03:42;99445.28;;;17.55;89.82
81005;BME280;70472;47.592;17.640;2023-07-29T00:04:14;99445.38;;;17.60;89.18
81005;BME280;70472;47.592;17.640;2023-07-29T00:04:46;99437.47;;;17.59;89.03
81005;BME280;70472;47.592;17.640;2023-07-29T00:05:19;99437.88;;;17.62;89.84
81005;BME280;70472;47.592;17.640;2023-07-29T00:05:51;99438.69;;;17.63;88.56
81005;BME280;70472;47.592;17.640;2023-07-29T00:06:24;99439.53;;;17.63;89.20
81005;BME280;70472;47.592;17.640;2023-07-29T00:06:56;99435.97;;;17.63;88.53
81005;BME280;70472;47.592;17.640;2023-07-29T00:07:28;99438.31;;;17.59;88.80
81005;BME280;70472;47.592;17.640;2023-07-29T00:08:01;99440.44;;;17.57;89.37
81005;BME280;70472;47.592;17.640;2023-07-29T00:08:33;99431.72;;;17.55;90.00
81005;BME280;70472;47.592;17.640;2023-07-29T00:09:06;99436.06;;;17.56;88.89
81005;BME280;70472;47.592;17.640;2023-07-29T00:09:38;99436.22;;;17.61;89.91
81005;BME280;70472;47.592;17.640;2023-07-29T00:10:10;99436.81;;;17.63;88.75
81005;BME280;70472;47.592;17.640;2023-07-29T00:10:43;99438.22;;;17.66;88.37
81005;BME280;70472;47.592;17.640;2023-07-29T00:11:15;99436.56;;;17.65;88.17
81005;BME280;70472;47.592;17.640;2023-07-29T00:11:48;99433.72;;;17.60;89.61
81005;BME280;70472;47.592;17.640;2023-07-29T00:12:20;99440.81;;;17.61;88.72
81005;BME280;70472;47.592;17.640;2023-07-29T00:12:52;99444.72;;;17.65;89.53
81005;BME280;70472;47.592;17.640;2023-07-29T00:13:25;99441.75;;;17.67;89.50
81005;BME280;70472;47.592;17.640;2023-07-29T00:13:57;99437.78;;;17.69;89.05
81005;BME280;70472;47.592;17.640;2023-07-29T00:14:29;99433.41;;;17.68;88.94
81005;BME280;70472;47.592;17.640;2023-07-29T00:15:02;99437.41;;;17.66;88.38
81005;BME280;70472;47.592;17.640;2023-07-29T00:15:34;99436.94;;;17.69;89.15
81005;BME280;70472;47.592;17.640;2023-07-29T00:16:07;99437.41;;;17.66;88.60
81005;BME280;70472;47.592;17.640;2023-07-29T00:16:39;99432.78;;;17.66;88.93
81005;BME280;70472;47.592;17.640;2023-07-29T00:17:12;99433.19;;;17.70;89.35
81005;BME280;70472;47.592;17.640;2023-07-29T00:17:44;99435.06;;;17.69;88.14
81005;BME280;70472;47.592;17.640;2023-07-29T00:18:16;99434.81;;;17.71;89.06
81005;BME280;70472;47.592;17.640;2023-07-29T00:18:49;99427.75;;;17.70;88.25
81005;BME280;70472;47.592;17.640;2023-07-29T00:19:21;99433.19;;;17.70;88.18
81005;BME280;70472;47.592;17.640;2023-07-29T00:19:54;99425.28;;;17.68;88.80
81005;BME280;70472;47.592;17.640;2023-07-29T00:20:26;99426.09;;;17.69;88.02
81005;BME280;70472;47.592;17.640;2023-07-29T00:20:59;99422.19;;;17.65;87.53
81005;BME280;70472;47.592;17.640;2023-07-29T00:21:31;99422.28;;;17.58;88.11
81005;BME280;70472;47.592;17.640;2023-07-29T00:22:04;99424.97;;;17.58;88.99
81005;BME280;70472;47.592;17.640;2023-07-29T00:22:37;99422.66;;;17.61;88.43
81005;BME280;70472;47.592;17.640;2023-07-29T00:23:09;99425.72;;;17.65;87.95
81005;BME280;70472;47.592;17.640;2023-07-29T00:23:41;99424.91;;;17.65;87.46
81005;BME280;70472;47.592;17.640;2023-07-29T00:24:14;99423.25;;;17.63;88.45
81005;BME280;70472;47.592;17.640;2023-07-29T00:24:52;99420.53;;;17.63;88.55
81005;BME280;70472;47.592;17.640;2023-07-29T00:25:24;99424.91;;;17.65;88.37
81005;BME280;70472;47.592;17.640;2023-07-29T00:25:57;99423.69;;;17.60;88.14
81005;BME280;70472;47.592;17.640;2023-07-29T00:26:29;99424.06;;;17.64;87.91
81005;BME280;70472;47.592;17.640;2023-07-29T00:27:02;99427.84;;;17.63;88.08
81005;BME280;70472;47.592;17.640;2023-07-29T00:27:35;99424.53;;;17.61;87.41
81005;BME280;70472;47.592;17.640;2023-07-29T00:28:07;99427.03;;;17.62;88.25
81005;BME280;70472;47.592;17.640;2023-07-29T00:28:39;99422.41;;;17.63;88.22
81005;BME280;70472;47.592;17.640;2023-07-29T00:29:12;99415.94;;;17.64;88.15
81005;BME280;70472;47.592;17.640;2023-07-29T00:29:44;99430.56;;;17.63;87.49
81005;BME280;70472;47.592;17.640;2023-07-29T00:30:19;99421.94;;;17.66;88.22
81005;BME280;70472;47.592;17.640;2023-07-29T00:30:51;99427.59;;;17.65;87.89
81005;BME280;70472;47.592;17.640;2023-07-29T00:31:23;99430.78;;;17.61;87.22
81005;BME280;70472;47.592;17.640;2023-07-29T00:31:56;99420.88;;;17.55;88.40
81005;BME280;70472;47.592;17.640;2023-07-29T00:32:29;99421.69;;;17.56;88.15
81005;BME280;70472;47.592;17.640;2023-07-29T00:33:02;99429.59;;;17.57;87.92
81005;BME280;70472;47.592;17.640;2023-07-29T00:33:34;99426.19;;;17.62;88.00
81005;BME280;70472;47.592;17.640;2023-07-29T00:34:06;99422.28;;;17.58;87.54
81005;BME280;70472;47.592;17.640;2023-07-29T00:34:40;99426.88;;;17.57;87.93
81005;BME280;70472;47.592;17.640;2023-07-29T00:35:13;99431.72;;;17.55;88.54
81005;BME280;70472;47.592;17.640;2023-07-29T00:35:45;99423.56;;;17.55;88.18
81005;BME280;70472;47.592;17.640;2023-07-29T00:36:17;99419.19;;;17.54;87.83
81005;BME280;70472;47.592;17.640;2023-07-29T00:36:51;99423.56;;;17.55;87.96
81005;BME280;70472;47.592;17.640;2023-07-29T00:37:23;99421.44;;;17.57;88.40
81005;BME280;70472;47.592;17.640;2023-07-29T00:37:56;99415.44;;;17.55;88.47
81005;BME280;70472;47.592;17.640;2023-07-29T00:38:28;99426.72;;;17.52;88.94
81005;BME280;70472;47.592;17.640;2023-07-29T00:39:00;99420.72;;;17.50;88.65
81005;BME280;70472;47.592;17.640;2023-07-29T00:39:33;99417.91;;;17.57;88.08
81005;BME280;70472;47.592;17.640;2023-07-29T00:40:20;99422.03;;;17.59;87.71
81005;BME280;70472;47.592;17.640;2023-07-29T00:40:53;99419.31;;;17.59;88.16
81005;BME280;70472;47.592;17.640;2023-07-29T00:41:26;99419.13;;;17.61;88.51
81005;BME280;70472;47.592;17.640;2023-07-29T00:41:59;99424.53;;;17.61;87.69
81005;BME280;70472;47.592;17.640;2023-07-29T00:42:31;99421.22;;;17.59;88.65
81005;BME280;70472;47.592;17.640;2023-07-29T00:43:03;99425.38;;;17.61;87.99
81005;BME280;70472;47.592;17.640;2023-07-29T00:43:36;99422.41;;;17.63;88.43
81005;BME280;70472;47.592;17.640;2023-07-29T00:44:08;99415.94;;;17.64;88.84
81005;BME280;70472;47.592;17.640;2023-07-29T00:44:40;99417.56;;;17.65;88.37
81005;BME280;70472;47.592;17.640;2023-07-29T00:45:13;99419.47;;;17.65;87.91
81005;BME280;70472;47.592;17.640;2023-07-29T00:45:45;99416.75;;;17.65;88.01
81005;BME280;70472;47.592;17.640;2023-07-29T00:46:20;99423.00;;;17.65;87.74
81005;BME280;70472;47.592;17.640;2023-07-29T00:46:54;99423.00;;;17.65;86.93
81005;BME280;70472;47.592;17.640;2023-07-29T00:47:27;99419.94;;;17.61;87.30
81005;BME280;70472;47.592;17.640;2023-07-29T00:48:01;99422.66;;;17.61;87.02
81005;BME280;70472;47.592;17.640;2023-07-29T00:48:33;99420.78;;;17.62;87.60
81005;BME280;70472;47.592;17.640;2023-07-29T00:49:07;99416.63;;;17.59;88.08
81005;BME280;70472;47.592;17.640;2023-07-29T00:49:39;99420.97;;;17.60;87.62
81005;BME280;70472;47.592;17.640;2023-07-29T00:50:13;99414.97;;;17.58;87.37
81005;BME280;70472;47.592;17.640;2023-07-29T00:50:46;99418.97;;;17.56;87.89
81005;BME280;70472;47.592;17.640;2023-07-29T00:51:20;99418.59;;;17.52;88.40
81005;BME280;70472;47.592;17.640;2023-07-29T00:51:53;99417.38;;;17.48;88.63
81005;BME280;70472;47.592;17.640;2023-07-29T00:52:26;99415.72;;;17.47;88.55
81005;BME280;70472;47.592;17.640;2023-07-29T00:52:59;99419.66;;;17.51;88.65
81005;BME280;70472;47.592;17.640;2023-07-29T00:53:31;99420.91;;;17.49;87.91
81005;BME280;70472;47.592;17.640;2023-07-29T00:54:04;99420.47;;;17.52;88.59
81005;BME280;70472;47.592;17.640;2023-07-29T00:54:37;99421.91;;;17.54;88.16
81005;BME280;70472;47.592;17.640;2023-07-29T00:55:09;99421.69;;;17.56;88.05
81005;BME280;70472;47.592;17.640;2023-07-29T00:55:43;99412.72;;;17.55;88.06
81005;BME280;70472;47.592;17.640;2023-07-29T00:56:15;99416.94;;;17.51;87.52
81005;BME280;70472;47.592;17.640;2023-07-29T00:56:48;99421.06;;;17.54;88.28
81005;BME280;70472;47.592;17.640;2023-07-29T00:57:21;99420.25;;;17.53;88.44
81005;BME280;70472;47.592;17.640;2023-07-29T00:57:55;99409.16;;;17.55;88.19
81005;BME280;70472;47.592;17.640;2023-07-29T00:58:27;99413.75;;;17.54;87.75
81005;BME280;70472;47.592;17.640;2023-07-29T00:59:01;99411.28;;;17.53;87.98
81005;BME280;70472;47.592;17.640;2023-07-29T00:59:35;99409.47;;;17.47;88.15
81005;BME280;70472;47.592;17.640;2023-07-29T01:00:09;99413.03;;;17.47;87.39
81005;BME280;70472;47.592;17.640;2023-07-29T01:00:41;99417.75;;;17.52;87.58
81005;BME280;70472;47.592;17.640;2023-07-29T01:01:14;99415.06;;;17.52;88.20
81005;BME280;70472;47.592;17.640;2023-07-29T01:01:46;99417.53;;;17.53;87.97
81005;BME280;70472;47.592;17.640;2023-07-29T01:02:19;99417.63;;;17.47;87.56
81005;BME280;70472;47.592;17.640;2023-07-29T01:02:52;99415.38;;;17.44;87.76
81005;BME280;70472;47.592;17.640;2023-07-29T01:03:25;99416.22;;;17.44;87.40
81005;BME280;70472;47.592;17.640;2023-07-29T01:03:59;99419.22;;;17.36;87.92
81005;BME280;70472;47.592;17.640;2023-07-29T01:04:31;99412.38;;;17.33;87.75
81005;BME280;70472;47.592;17.640;2023-07-29T01:05:04;99415.44;;;17.37;88.39
81005;BME280;70472;47.592;17.640;2023-07-29T01:05:57;99420.41;;;17.40;87.81
81005;BME280;70472;47.592;17.640;2023-07-29T01:07:49;99415.22;;;17.39;87.87
81005;BME280;70472;47.592;17.640;2023-07-29T01:08:43;99422.91;;;17.42;88.15
81005;BME280;70472;47.592;17.640;2023-07-29T01:09:45;99419.50;;;17.46;88.25
81005;BME280;70472;47.592;17.640;2023-07-29T01:11:55;99424.09;;;17.46;87.74
81005;BME280;70472;47.592;17.640;2023-07-29T01:13:03;99420.56;;;17.45;87.66
81005;BME280;70472;47.592;17.640;2023-07-29T01:16:30;99422.22;;;17.46;88.23
81005;BME280;70472;47.592;17.640;2023-07-29T01:17:12;99417.25;;;17.43;87.64
81005;BME280;70472;47.592;17.640;2023-07-29T01:17:54;99415.59;;;17.42;87.74
81005;BME280;70472;47.592;17.640;2023-07-29T01:18:32;99415.81;;;17.41;87.70
81005;BME280;70472;47.592;17.640;2023-07-29T01:19:06;99417.47;;;17.42;88.56
81005;BME280;70472;47.592;17.640;2023-07-29T01:20:07;99415.59;;;17.42;88.29
81005;BME280;70472;47.592;17.640;2023-07-29T01:20:40;99413.69;;;17.43;87.73
81005;BME280;70472;47.592;17.640;2023-07-29T01:21:17;99409.00;;;17.38;88.12
81005;BME280;70472;47.592;17.640;2023-07-29T01:21:51;99412.53;;;17.39;87.71
81005;BME280;70472;47.592;17.640;2023-07-29T01:22:24;99410.34;;;17.29;88.21
81005;BME280;70472;47.592;17.640;2023-07-29T01:22:57;99416.22;;;17.26;88.05
81005;BME280;70472;47.592;17.640;2023-07-29T01:23:34;99414.50;;;17.31;87.96
81005;BME280;70472;47.592;17.640;2023-07-29T01:24:06;99418.16;;;17.37;87.26
81005;BME280;70472;47.592;17.640;2023-07-29T01:24:39;99407.78;;;17.34;87.94
81005;BME280;70472;47.592;17.640;2023-07-29T01:25:12;99412.81;;;17.30;87.98
81005;BME280;70472;47.592;17.640;2023-07-29T01:25:44;99413.28;;;17.27;87.93
81005;BME280;70472;47.592;17.640;2023-07-29T01:26:17;99413.63;;;17.31;87.68
81005;BME280;70472;47.592;17.640;2023-07-29T01:26:49;99414.69;;;17.30;87.48
81005;BME280;70472;47.592;17.640;2023-07-29T01:27:21;99418.25;;;17.30;88.71
81005;BME280;70472;47.592;17.640;2023-07-29T01:27:55;99411.53;;;17.33;87.86
81005;BME280;70472;47.592;17.640;2023-07-29T01:28:28;99408.44;;;17.29;87.43
81005;BME280;70472;47.592;17.640;2023-07-29T01:29:01;99413.28;;;17.27;88.29
81005;BME280;70472;47.592;17.640;2023-07-29T01:29:33;99418.03;;;17.32;88.69
81005;BME280;70472;47.592;17.640;2023-07-29T01:30:07;99411.53;;;17.33;87.53
81005;BME280;70472;47.592;17.640;2023-07-29T01:30:40;99414.03;;;17.34;88.11
81005;BME280;70472;47.592;17.640;2023-07-29T01:31:34;99407.78;;;17.34;88.39
81005;BME280;70472;47.592;17.640;2023-07-29T01:32:54;99415.31;;;17.32;88.76
81005;BME280;70472;47.592;17.640;2023-07-29T01:33:40;99415.09;;;17.33;88.23
81005;BME280;70472;47.592;17.640;2023-07-29T01:35:09;99411.06;;;17.36;87.36
81005;BME280;70472;47.592;17.640;2023-07-29T01:35:35;99405.38;;;17.26;88.02
81005;BME280;70472;47.592;17.640;2023-07-29T01:36:15;99405.38;;;17.26;88.00
81005;BME280;70472;47.592;17.640;2023-07-29T01:36:54;99410.72;;;17.32;88.14
81005;BME280;70472;47.592;17.640;2023-07-29T01:37:33;99405.31;;;17.32;87.95
81005;BME280;70472;47.592;17.640;2023-07-29T01:38:32;99409.28;;;17.30;88.07
81005;BME280;70472;47.592;17.640;2023-07-29T01:39:05;99404.47;;;17.32;87.98
81005;BME280;70472;47.592;17.640;2023-07-29T01:39:39;99405.88;;;17.34;87.45
81005;BME280;70472;47.592;17.640;2023-07-29T01:40:12;99397.75;;;17.34;88.24
81005;BME280;70472;47.592;17.640;2023-07-29T01:40:46;99400.22;;;17.36;88.38
81005;BME280;70472;47.592;17.640;2023-07-29T01:41:20;99401.97;;;17.30;87.63
81005;BME280;70472;47.592;17.640;2023-07-29T01:41:54;99401.16;;;17.30;87.84
81005;BME280;70472;47.592;17.640;2023-07-29T01:42:27;99397.25;;;17.26;88.64
81005;BME280;70472;47.592;17.640;2023-07-29T01:43:01;99409.13;;;17.25;87.47
81005;BME280;70472;47.592;17.640;2023-07-29T01:43:34;99399.97;;;17.26;87.88
81005;BME280;70472;47.592;17.640;2023-07-29T01:44:10;99404.53;;;17.25;87.39
81005;BME280;70472;47.592;17.640;2023-07-29T01:44:43;99397.09;;;17.21;87.57
81005;BME280;70472;47.592;17.640;2023-07-29T01:45:15;99405.09;;;17.16;88.72
81005;BME280;70472;47.592;17.640;2023-07-29T01:45:48;99401.31;;;17.17;88.43
81005;BME280;70472;47.592;17.640;2023-07-29T01:46:21;99397.94;;;17.21;88.60
81005;BME280;70472;47.592;17.640;2023-07-29T01:46:56;99401.00;;;17.25;88.56
81005;BME280;70472;47.592;17.640;2023-07-29T01:47:28;99400.41;;;17.23;88.04
81005;BME280;70472;47.592;17.640;2023-07-29T01:48:00;99400.66;;;17.21;88.20
81005;BME280;70472;47.592;17.640;2023-07-29T01:48:33;99409.38;;;17.23;88.04
81005;BME280;70472;47.592;17.640;2023-07-29T01:49:05;99391.44;;;17.22;88.21
81005;BME280;70472;47.592;17.640;2023-07-29T01:49:37;99399.34;;;17.24;88.35
81005;BME280;70472;47.592;17.640;2023-07-29T01:50:10;99396.03;;;17.22;87.92
81005;BME280;70472;47.592;17.640;2023-07-29T01:50:43;99394.53;;;17.26;88.26
81005;BME280;70472;47.592;17.640;2023-07-29T01:51:15;99395.81;;;17.23;87.59
81005;BME280;70472;47.592;17.640;2023-07-29T01:51:47;99392.88;;;17.25;88.06
81005;BME280;70472;47.592;17.640;2023-07-29T01:52:21;99390.97;;;17.25;87.67
81005;BME280;70472;47.592;17.640;2023-07-29T01:52:53;99395.44;;;17.20;87.66
81005;BME280;70472;47.592;17.640;2023-07-29T01:53:25;99392.13;;;17.18;88.02
81005;BME280;70472;47.592;17.640;2023-07-29T01:53:58;99386.69;;;17.18;88.37
81005;BME280;70472;47.592;17.640;2023-07-29T01:54:30;99395.91;;;17.17;88.71
81005;BME280;70472;47.592;17.640;2023-07-29T01:55:03;99393.19;;;17.17;87.94
81005;BME280;70472;47.592;17.640;2023-07-29T01:55:36;99391.06;;;17.19;88.55
81005;BME280;70472;47.592;17.640;2023-07-29T01:56:08;99391.88;;;17.19;87.90
81005;BME280;70472;47.592;17.640;2023-07-29T01:56:44;99394.97;;;17.23;87.99
81005;BME280;70472;47.592;17.640;2023-07-29T01:57:16;99393.56;;;17.20;88.67
81005;BME280;70472;47.592;17.640;2023-07-29T01:57:49;99394.84;;;17.18;87.99
81005;BME280;70472;47.592;17.640;2023-07-29T01:58:21;99396.47;;;17.19;87.90
81005;BME280;70472;47.592;17.640;2023-07-29T01:58:54;99399.19;;;17.19;87.75
81005;BME280;70472;47.592;17.640;2023-07-29T01:59:26;99391.06;;;17.19;88.13
81005;BME280;70472;47.592;17.640;2023-07-29T01:59:59;99397.53;;;17.18;88.52
81005;BME280;70472;47.592;17.640;2023-07-29T02:00:31;99391.88;;;17.19;88.48
81005;BME280;70472;47.592;17.640;2023-07-29T02:01:04;99396.03;;;17.22;88.75
81005;BME280;70472;47.592;17.640;2023-07-29T02:01:36;99392.88;;;17.25;87.80
81005;BME280;70472;47.592;17.640;2023-07-29T02:02:08;99389.56;;;17.23;87.54
81005;BME280;70472;47.592;17.640;2023-07-29T02:02:41;99391.22;;;17.24;87.41
81005;BME280;70472;47.592;17.640;2023-07-29T02:03:13;99391.22;;;17.24;88.20
81005;BME280;70472;47.592;17.640;2023-07-29T02:03:45;99394.97;;;17.23;88.62
81005;BME280;70472;47.592;17.640;2023-07-29T02:04:18;99396.63;;;17.24;88.75
81005;BME280;70472;47.592;17.640;2023-07-29T02:04:50;99389.78;;;17.21;88.00
81005;BME280;70472;47.592;17.640;2023-07-29T02:05:22;99394.16;;;17.22;88.47
81005;BME280;70472;47.592;17.640;2023-07-29T02:05:55;99393.94;;;17.24;88.40
81005;BME280;70472;47.592;17.640;2023-07-29T02:06:27;99396.19;;;17.27;88.35
81005;BME280;70472;47.592;17.640;2023-07-29T02:07:01;99394.31;;;17.27;88.47
81005;BME280;70472;47.592;17.640;2023-07-29T02:07:33;99396.78;;;17.29;88.68
81005;BME280;70472;47.592;17.640;2023-07-29T02:08:06;99399.50;;;17.29;88.67
81005;BME280;70472;47.592;17.640;2023-07-29T02:08:38;99392.19;;;17.29;88.17
81005;BME280;70472;47.592;17.640;2023-07-29T02:09:11;99384.97;;;17.23;87.61
81005;BME280;70472;47.592;17.640;2023-07-29T02:09:43;99390.38;;;17.23;88.07
81005;BME280;70472;47.592;17.640;2023-07-29T02:10:15;99394.97;;;17.23;88.61
81005;BME280;70472;47.592;17.640;2023-07-29T02:10:48;99395.38;;;17.26;88.52
81005;BME280;70472;47.592;17.640;2023-07-29T02:11:20;99393.25;;;17.28;88.22
81005;BME280;70472;47.592;17.640;2023-07-29T02:11:53;99395.38;;;17.26;88.30
81005;BME280;70472;47.592;17.640;2023-07-29T02:12:25;99391.38;;;17.29;88.92
81005;BME280;70472;47.592;17.640;2023-07-29T02:12:57;99389.94;;;17.26;88.21
81005;BME280;70472;47.592;17.640;2023-07-29T02:13:30;99393.47;;;17.27;88.08
81005;BME280;70472;47.592;17.640;2023-07-29T02:14:02;99390.97;;;17.25;88.38
81005;BME280;70472;47.592;17.640;2023-07-29T02:14:35;99386.19;;;17.27;88.30
81005;BME280;70472;47.592;17.640;2023-07-29T02:15:08;99385.13;;;17.28;88.48
81005;BME280;70472;47.592;17.640;2023-07-29T02:15:40;99396.19;;;17.27;89.26
81005;BME280;70472;47.592;17.640;2023-07-29T02:16:12;99389.47;;;17.29;88.73
81005;BME280;70472;47.592;17.640;2023-07-29T02:16:45;99391.22;;;17.24;88.63
81005;BME280;70472;47.592;17.640;2023-07-29T02:17:18;99395.81;;;17.23;88.92
81005;BME280;70472;47.592;17.640;2023-07-29T02:17:50;99389.41;;;17.18;88.59
81005;BME280;70472;47.592;17.640;2023-07-29T02:18:23;99388.44;;;17.12;89.03
81005;BME280;70472;47.592;17.640;2023-07-29T02:18:55;99398.84;;;17.15;89.03
81005;BME280;70472;47.592;17.640;2023-07-29T02:19:28;99400.88;;;17.20;88.63
81005;BME280;70472;47.592;17.640;2023-07-29T02:20:00;99394.16;;;17.22;88.80
81005;BME280;70472;47.592;17.640;2023-07-29T02:20:33;99391.22;;;17.24;88.60
81005;BME280;70472;47.592;17.640;2023-07-29T02:21:06;99393.34;;;17.22;88.06
81005;BME280;70472;47.592;17.640;2023-07-29T02:21:38;99391.06;;;17.19;88.89
81005;BME280;70472;47.592;17.640;2023-07-29T02:22:14;99389.66;;;17.16;88.23
81005;BME280;70472;47.592;17.640;2023-07-29T02:22:46;99392.59;;;17.15;88.72
81005;BME280;70472;47.592;17.640;2023-07-29T02:23:19;99394.59;;;17.19;88.30
81005;BME280;70472;47.592;17.640;2023-07-29T02:23:51;99396.63;;;17.24;88.44
81005;BME280;70472;47.592;17.640;2023-07-29T02:24:24;99390.63;;;17.22;88.77
81005;BME280;70472;47.592;17.640;2023-07-29T02:24:56;99394.97;;;17.23;88.67
81005;BME280;70472;47.592;17.640;2023-07-29T02:25:28;99392.50;;;17.21;87.78
81005;BME280;70472;47.592;17.640;2023-07-29T02:26:01;99392.13;;;17.18;88.03
81005;BME280;70472;47.592;17.640;2023-07-29T02:26:33;99394.31;;;17.09;88.99
81005;BME280;70472;47.592;17.640;2023-07-29T02:27:06;99397.72;;;17.04;88.73
81005;BME280;70472;47.592;17.640;2023-07-29T02:27:39;99394.69;;;17.13;88.77
81005;BME280;70472;47.592;17.640;2023-07-29T02:28:11;99395.97;;;17.10;88.97
81005;BME280;70472;47.592;17.640;2023-07-29T02:28:44;99396.22;;;17.08;89.19
81005;BME280;70472;47.592;17.640;2023-07-29T02:29:16;99393.66;;;17.14;89.43
81005;BME280;70472;47.592;17.640;2023-07-29T02:29:48;99396.13;;;17.15;89.19
81005;BME280;70472;47.592;17.640;2023-07-29T02:30:21;99398.38;;;17.18;89.26
81005;BME280;70472;47.592;17.640;2023-07-29T02:31:23;99401.09;;;17.18;89.15
81005;BME280;70472;47.592;17.640;2023-07-29T02:31:55;99398.84;;;17.15;88.52
81005;BME280;70472;47.592;17.640;2023-07-29T02:32:28;99398.38;;;17.18;89.04
81005;BME280;70472;47.592;17.640;2023-07-29T02:33:00;99397.19;;;17.14;89.12
81005;BME280;70472;47.592;17.640;2023-07-29T02:33:32;99400.09;;;17.13;88.89
81005;BME280;70472;47.592;17.640;2023-07-29T02:34:05;99398.44;;;17.12;89.21
81005;BME280;70472;47.592;17.640;2023-07-29T02:34:37;99391.00;;;17.07;89.74
81005;BME280;70472;47.592;17.640;2023-07-29T02:35:11;99394.53;;;17.07;89.51
81005;BME280;70472;47.592;17.640;2023-07-29T02:35:44;99391.38;;;17.11;89.38
81005;BME280;70472;47.592;17.640;2023-07-29T02:36:17;99391.97;;;17.13;89.54
81005;BME280;70472;47.592;17.640;2023-07-29T02:36:49;99396.38;;;17.14;88.98
81005;BME280;70472;47.592;17.640;2023-07-29T02:37:22;99395.16;;;17.09;89.18
81005;BME280;70472;47.592;17.640;2023-07-29T02:37:54;99396.81;;;17.11;89.33
81005;BME280;70472;47.592;17.640;2023-07-29T02:38:27;99397.88;;;17.09;89.68
81005;BME280;70472;47.592;17.640;2023-07-29T02:38:59;99398.44;;;17.12;88.80
81005;BME280;70472;47.592;17.640;2023-07-29T02:39:31;99388.91;;;17.09;89.55
81005;BME280;70472;47.592;17.640;2023-07-29T02:40:04;99389.59;;;17.04;89.61
81005;BME280;70472;47.592;17.640;2023-07-29T02:40:38;99401.47;;;17.03;89.77
81005;BME280;70472;47.592;17.640;2023-07-29T02:41:10;99393.50;;;17.08;89.35
81005;BME280;70472;47.592;17.640;2023-07-29T02:41:43;99395.38;;;17.08;89.31
81005;BME280;70472;47.592;17.640;2023-07-29T02:42:15;99393.94;;;17.05;89.82
81005;BME280;70472;47.592;17.640;2023-07-29T02:42:48;99395.00;;;17.04;90.18
81005;BME280;70472;47.592;17.640;2023-07-29T02:43:20;99395.16;;;17.09;89.00
81005;BME280;70472;47.592;17.640;2023-07-29T02:43:52;99392.44;;;17.09;89.85
81005;BME280;70472;47.592;17.640;2023-07-29T02:44:25;99389.50;;;17.11;89.40
81005;BME280;70472;47.592;17.640;2023-07-29T02:44:57;99389.25;;;17.13;89.91
81005;BME280;70472;47.592;17.640;2023-07-29T02:45:29;99390.94;;;17.14;88.83
81005;BME280;70472;47.592;17.640;2023-07-29T02:46:02;99392.78;;;17.13;89.26
81005;BME280;70472;47.592;17.640;2023-07-29T02:46:35;99388.22;;;17.14;89.56
81005;BME280;70472;47.592;17.640;2023-07-29T02:47:07;99389.88;;;17.15;88.89
81005;BME280;70472;47.592;17.640;2023-07-29T02:47:39;99390.94;;;17.14;89.44
81005;BME280;70472;47.592;17.640;2023-07-29T02:48:12;99391.16;;;17.12;89.27
81005;BME280;70472;47.592;17.640;2023-07-29T02:48:45;99391.00;;;17.07;89.32
81005;BME280;70472;47.592;17.640;2023-07-29T02:49:17;99393.69;;;17.07;89.48
81005;BME280;70472;47.592;17.640;2023-07-29T02:49:49;99388.53;;;17.05;90.54
81005;BME280;70472;47.592;17.640;2023-07-29T02:50:22;99394.31;;;17.09;89.18
81005;BME280;70472;47.592;17.640;2023-07-29T02:50:55;99394.69;;;17.13;90.11
81005;BME280;70472;47.592;17.640;2023-07-29T02:51:27;99390.94;;;17.14;90.09
81005;BME280;70472;47.592;17.640;2023-07-29T02:51:59;99393.84;;;17.12;89.97
81005;BME280;70472;47.592;17.640;2023-07-29T02:52:32;99395.75;;;17.12;89.19
81005;BME280;70472;47.592;17.640;2023-07-29T02:53:04;99396.38;;;17.14;90.02
81005;BME280;70472;47.592;17.640;2023-07-29T02:53:36;99399.66;;;17.16;89.02
81005;BME280;70472;47.592;17.640;2023-07-29T02:54:09;99385.06;;;17.17;89.40
81005;BME280;70472;47.592;17.640;2023-07-29T02:54:41;99390.78;;;17.08;89.72
81005;BME280;70472;47.592;17.640;2023-07-29T02:55:13;99388.66;;;17.11;89.68
81005;BME280;70472;47.592;17.640;2023-07-29T02:55:46;99383.84;;;17.13;88.96
81005;BME280;70472;47.592;17.640;2023-07-29T02:56:18;99389.25;;;17.13;89.81
81005;BME280;70472;47.592;17.640;2023-07-29T02:56:51;99386.94;;;17.16;89.74
81005;BME280;70472;47.592;17.640;2023-07-29T02:57:23;99382.19;;;17.12;88.93
81005;BME280;70472;47.592;17.640;2023-07-29T02:57:55;99390.63;;;17.03;89.97
81005;BME280;70472;47.592;17.640;2023-07-29T02:58:28;99388.09;;;17.08;89.98
81005;BME280;70472;47.592;17.640;2023-07-29T02:59:01;99393.50;;;17.08;90.04
81005;BME280;70472;47.592;17.640;2023-07-29T02:59:34;99386.19;;;17.09;89.90
81005;BME280;70472;47.592;17.640;2023-07-29T03:00:08;99398.22;;;17.13;89.28
81005;BME280;70472;47.592;17.640;2023-07-29T03:00:40;99388.00;;;17.15;88.79
81005;BME280;70472;47.592;17.640;2023-07-29T03:01:13;99386.56;;;17.13;89.27
81005;BME280;70472;47.592;17.640;2023-07-29T03:01:45;99393.41;;;17.15;89.40
81005;BME280;70472;47.592;17.640;2023-07-29T03:02:17;99394.00;;;17.17;88.92
81005;BME280;70472;47.592;17.640;2023-07-29T03:02:50;99391.53;;;17.16;89.20
81005;BME280;70472;47.592;17.640;2023-07-29T03:03:23;99394.25;;;17.16;88.74